createdAt,value
2019-05-12T00:00:43.471Z,9.05
2019-05-12T00:03:13.034Z,12.05
2019-05-12T00:05:42.605Z,12.37
2019-05-12T00:08:12.254Z,10.35
2019-05-12T00:10:41.818Z,8.63
2019-05-12T00:13:11.373Z,5.78
2019-05-12T00:15:40.874Z,10.65
2019-05-12T00:18:10.470Z,11.53
2019-05-12T00:20:40.033Z,8.85
2019-05-12T00:23:23.873Z,7.25
2019-05-12T00:25:40.830Z,10.75
2019-05-12T00:28:10.418Z,7.53
2019-05-12T00:30:42.049Z,6.87
2019-05-12T00:33:11.621Z,10.10
2019-05-12T00:35:41.110Z,10.30
2019-05-12T00:38:10.675Z,12.55
2019-05-12T00:40:40.229Z,7.55
2019-05-12T00:43:10.375Z,6.28
2019-05-12T00:45:40.199Z,9.70
2019-05-12T00:48:09.857Z,8.50
2019-05-12T00:50:39.515Z,6.12
2019-05-12T00:53:09.597Z,10.48
2019-05-12T00:55:39.345Z,6.97
2019-05-12T00:58:09.181Z,7.83
2019-05-12T01:00:41.073Z,10.85
2019-05-12T01:03:10.321Z,9.45
2019-05-12T01:05:39.865Z,7.60
2019-05-12T01:08:09.759Z,7.20
2019-05-12T01:10:39.579Z,7.40
2019-05-12T01:13:09.360Z,7.17
2019-05-12T01:15:38.903Z,8.30
2019-05-12T01:18:09.851Z,12.70
2019-05-12T01:20:39.734Z,6.00
2019-05-12T01:23:09.305Z,7.83
2019-05-12T01:25:39.841Z,8.83
2019-05-12T01:28:09.432Z,8.90
2019-05-12T01:30:39.496Z,10.65
2019-05-12T01:33:09.305Z,12.07
2019-05-12T01:35:39.391Z,10.08
2019-05-12T01:38:09.153Z,14.65
2019-05-12T01:40:39.615Z,8.93
2019-05-12T01:43:09.614Z,10.80
2019-05-12T01:45:39.417Z,9.50
2019-05-12T01:48:09.433Z,7.50
2019-05-12T01:50:39.234Z,11.55
2019-05-12T01:53:08.979Z,8.65
2019-05-12T01:55:39.187Z,8.58
2019-05-12T01:58:09.385Z,5.87
2019-05-12T02:00:39.374Z,6.83
2019-05-12T02:03:09.695Z,8.43
2019-05-12T02:05:41.166Z,7.03
2019-05-12T02:08:12.376Z,10.48
2019-05-12T02:10:41.941Z,7.92
2019-05-12T02:13:11.517Z,11.83
2019-05-12T02:15:41.339Z,8.00
2019-05-12T02:18:10.916Z,11.03
2019-05-12T02:20:40.476Z,6.50
2019-05-12T02:23:10.033Z,9.03
2019-05-12T02:25:39.649Z,8.20
2019-05-12T02:28:09.635Z,9.38
2019-05-12T02:30:41.329Z,7.35
2019-05-12T02:33:10.379Z,9.40
2019-05-12T02:35:39.953Z,15.30
2019-05-12T02:38:09.514Z,9.08
2019-05-12T02:40:39.074Z,7.37
2019-05-12T02:43:08.635Z,8.70
2019-05-12T02:45:38.186Z,9.55
2019-05-12T02:48:07.803Z,9.65
2019-05-12T02:50:38.046Z,9.38
2019-05-12T02:53:08.146Z,10.93
2019-05-12T02:55:38.034Z,11.20
2019-05-12T02:58:08.199Z,9.43
2019-05-12T03:00:38.443Z,17.25
2019-05-12T03:03:14.410Z,12.85
2019-05-12T03:05:45.694Z,10.38
2019-05-12T03:08:16.809Z,10.08
2019-05-12T03:10:47.906Z,8.53
2019-05-12T03:13:17.462Z,9.23
2019-05-12T03:15:47.039Z,10.05
2019-05-12T03:18:16.607Z,9.35
2019-05-12T03:20:46.174Z,11.33
2019-05-12T03:23:19.149Z,9.83
2019-05-12T03:25:47.295Z,12.45
2019-05-12T03:28:16.885Z,10.32
2019-05-12T03:30:48.612Z,14.05
2019-05-12T03:33:19.830Z,13.40
2019-05-12T03:35:52.813Z,12.13
2019-05-12T03:38:19.974Z,10.35
2019-05-12T03:40:49.559Z,10.25
2019-05-12T03:43:19.114Z,12.68
2019-05-12T03:45:48.691Z,10.63
2019-05-12T03:48:18.245Z,12.65
2019-05-12T03:50:47.819Z,12.45
2019-05-12T03:53:17.449Z,10.35
2019-05-12T03:55:47.488Z,10.00
2019-05-12T03:58:17.154Z,14.80
2019-05-12T04:00:46.806Z,12.33
2019-05-12T04:03:16.364Z,11.65
2019-05-12T04:05:45.946Z,10.10
2019-05-12T04:08:16.142Z,11.15
2019-05-12T04:10:46.071Z,11.08
2019-05-12T04:13:15.814Z,11.63
2019-05-12T04:15:46.075Z,11.88
2019-05-12T04:18:16.680Z,11.53
2019-05-12T04:20:46.651Z,15.23
2019-05-12T04:23:16.239Z,12.90
2019-05-12T04:25:52.046Z,11.63
2019-05-12T04:28:16.981Z,11.40
2019-05-12T04:30:46.560Z,8.98
2019-05-12T04:33:16.223Z,11.53
2019-05-12T04:35:45.953Z,14.05
2019-05-12T04:38:15.519Z,13.72
2019-05-12T04:40:45.602Z,11.25
2019-05-12T04:43:15.323Z,10.60
2019-05-12T04:45:45.379Z,8.50
2019-05-12T04:48:20.269Z,10.10
2019-05-12T04:50:46.330Z,11.75
2019-05-12T04:53:15.902Z,10.28
2019-05-12T04:55:45.474Z,12.78
2019-05-12T04:58:16.014Z,11.03
2019-05-12T05:00:45.993Z,11.53
2019-05-12T05:03:15.583Z,14.63
2019-05-12T05:05:45.143Z,8.25
2019-05-12T05:08:19.333Z,10.40
2019-05-12T05:10:45.898Z,12.55
2019-05-12T05:13:15.475Z,9.93
2019-05-12T05:15:45.678Z,10.55
2019-05-12T05:18:15.262Z,8.70
2019-05-12T05:20:44.835Z,7.17
2019-05-12T05:23:14.457Z,7.58
2019-05-12T05:25:43.960Z,8.68
2019-05-12T05:28:14.605Z,15.43
2019-05-12T05:30:44.589Z,8.18
2019-05-12T05:33:14.648Z,9.03
2019-05-12T05:35:44.424Z,7.08
2019-05-12T05:38:19.061Z,10.05
2019-05-12T05:40:45.617Z,10.43
2019-05-12T05:43:18.628Z,16.93
2019-05-12T05:45:46.708Z,8.80
2019-05-12T05:48:16.237Z,12.60
2019-05-12T05:50:45.820Z,8.55
2019-05-12T05:53:19.639Z,10.60
2019-05-12T05:55:50.271Z,9.50
2019-05-12T05:58:17.969Z,8.88
2019-05-12T06:00:47.538Z,9.45
2019-05-12T06:03:23.057Z,10.25
2019-05-12T06:05:48.287Z,9.25
2019-05-12T06:08:20.754Z,7.03
2019-05-12T06:10:49.037Z,5.65
2019-05-12T06:13:21.203Z,8.10
2019-05-12T06:15:49.793Z,14.83
2019-05-12T06:18:19.365Z,6.53
2019-05-12T06:20:48.926Z,11.68
2019-05-12T06:23:18.504Z,10.35
2019-05-12T06:25:51.490Z,7.80
2019-05-12T06:28:19.245Z,6.78
2019-05-12T06:30:50.176Z,5.70
2019-05-12T06:33:22.767Z,7.62
2019-05-12T06:35:51.226Z,7.87
2019-05-12T06:38:21.112Z,5.47
2019-05-12T06:40:50.667Z,8.38
2019-05-12T06:43:20.233Z,7.25
2019-05-12T06:45:49.789Z,6.87
2019-05-12T06:48:24.366Z,4.95
2019-05-12T06:50:50.537Z,7.17
2019-05-12T06:53:25.484Z,8.15
2019-05-12T06:55:53.853Z,6.30
2019-05-12T06:58:31.092Z,6.45
2019-05-12T07:00:54.089Z,7.08
2019-05-12T07:03:25.881Z,5.78
2019-05-12T07:05:54.810Z,5.65
2019-05-12T07:08:27.464Z,3.47
2019-05-12T07:11:01.924Z,4.87
2019-05-12T07:13:29.480Z,4.95
2019-05-12T07:15:59.579Z,4.75
2019-05-12T07:18:32.428Z,4.80
2019-05-12T07:21:00.319Z,3.60
2019-05-12T07:23:30.233Z,4.92
2019-05-12T07:26:04.830Z,6.33
2019-05-12T07:28:36.201Z,3.10
2019-05-12T07:31:03.880Z,5.97
2019-05-12T07:33:41.469Z,5.80
2019-05-12T07:36:06.468Z,4.42
2019-05-12T07:38:37.973Z,5.70
2019-05-12T07:41:10.663Z,4.50
2019-05-12T07:43:44.159Z,6.10
2019-05-12T07:46:13.520Z,3.45
2019-05-12T07:48:48.979Z,3.77
2019-05-12T07:51:14.373Z,4.60
2019-05-12T07:53:49.114Z,4.22
2019-05-12T07:56:19.625Z,3.95
2019-05-12T07:58:51.358Z,5.33
2019-05-12T08:01:17.644Z,6.47
2019-05-12T08:03:50.953Z,4.33
2019-05-12T08:06:18.469Z,4.50
2019-05-12T08:08:50.945Z,3.95
2019-05-12T08:11:19.237Z,2.22
2019-05-12T08:13:48.788Z,2.95
2019-05-12T08:16:19.574Z,2.62
2019-05-12T08:18:49.524Z,1.32
2019-05-12T08:21:19.885Z,2.12
2019-05-12T08:23:49.449Z,1.95
2019-05-12T08:26:18.945Z,3.45
2019-05-12T08:28:48.803Z,2.40
2019-05-12T08:31:24.765Z,1.90
2019-05-12T08:33:49.478Z,3.75
2019-05-12T08:36:19.639Z,5.10
2019-05-12T08:38:49.165Z,1.67
2019-05-12T08:41:18.724Z,1.20
2019-05-12T08:43:54.474Z,4.55
2019-05-12T08:46:19.426Z,3.02
2019-05-12T08:48:51.497Z,2.62
2019-05-12T08:51:20.330Z,3.90
2019-05-12T08:53:53.897Z,3.60
2019-05-12T08:56:23.991Z,2.62
2019-05-12T08:58:54.403Z,4.87
2019-05-12T09:01:26.638Z,1.40
2019-05-12T09:03:54.823Z,4.28
2019-05-12T09:06:24.459Z,3.02
2019-05-12T09:08:54.657Z,1.07
2019-05-12T09:11:24.441Z,4.20
2019-05-12T09:14:00.431Z,3.17
2019-05-12T09:16:25.158Z,2.40
2019-05-12T09:18:55.329Z,2.42
2019-05-12T09:21:31.812Z,3.05
2019-05-12T09:23:56.469Z,2.37
2019-05-12T09:26:28.366Z,2.98
2019-05-12T09:28:57.310Z,6.70
2019-05-12T09:31:29.509Z,4.53
2019-05-12T09:33:58.058Z,3.95
2019-05-12T09:36:29.241Z,3.42
2019-05-12T09:39:01.658Z,4.55
2019-05-12T09:41:36.020Z,4.62
2019-05-12T09:44:01.757Z,2.72
2019-05-12T09:46:34.326Z,2.92
2019-05-12T09:49:04.264Z,2.20
2019-05-12T09:51:41.238Z,2.00
2019-05-12T09:54:05.330Z,3.67
2019-05-12T09:56:35.141Z,2.20
2019-05-12T09:59:17.416Z,3.15
2019-05-12T10:01:39.558Z,5.30
2019-05-12T10:04:10.356Z,7.40
2019-05-12T10:06:39.967Z,3.08
2019-05-12T10:09:17.610Z,2.75
2019-05-12T10:11:44.546Z,5.08
2019-05-12T10:14:13.995Z,2.98
2019-05-12T10:16:45.535Z,3.33
2019-05-12T10:19:15.097Z,3.17
2019-05-12T10:21:49.172Z,4.35
2019-05-12T10:24:15.894Z,2.80
2019-05-12T10:26:48.896Z,4.20
2019-05-12T10:29:20.580Z,4.92
2019-05-12T10:31:47.873Z,2.87
2019-05-12T10:34:20.544Z,3.85
2019-05-12T10:36:53.458Z,4.55
2019-05-12T10:39:24.452Z,3.90
2019-05-12T10:41:54.529Z,4.45
2019-05-12T10:44:24.412Z,3.80
2019-05-12T10:46:55.619Z,3.22
2019-05-12T10:49:25.209Z,1.95
2019-05-12T10:51:55.065Z,7.35
2019-05-12T10:54:24.682Z,3.10
2019-05-12T10:56:54.686Z,3.47
2019-05-12T10:59:32.708Z,3.72
2019-05-12T11:01:56.078Z,2.95
2019-05-12T11:04:35.640Z,3.47
2019-05-12T11:06:56.865Z,4.25
2019-05-12T11:09:30.050Z,4.70
2019-05-12T11:11:57.611Z,4.37
2019-05-12T11:14:30.479Z,6.70
2019-05-12T11:17:02.173Z,4.80
2019-05-12T11:19:33.592Z,7.42
2019-05-12T11:22:03.662Z,6.35
2019-05-12T11:24:33.875Z,5.95
2019-05-12T11:27:04.130Z,4.80
2019-05-12T11:29:45.699Z,5.12
2019-05-12T11:32:05.195Z,6.78
2019-05-12T11:34:34.792Z,3.75
2019-05-12T11:37:04.342Z,7.15
2019-05-12T11:39:37.210Z,6.12
2019-05-12T11:42:05.139Z,7.00
2019-05-12T11:44:34.745Z,6.03
2019-05-12T11:47:04.317Z,5.90
2019-05-12T11:49:33.888Z,4.67
2019-05-12T11:52:09.179Z,4.40
2019-05-12T11:54:34.873Z,5.67
2019-05-12T11:57:04.430Z,3.83
2019-05-12T11:59:34.227Z,4.85
2019-05-12T12:02:03.768Z,2.95
2019-05-12T12:04:45.327Z,4.50
2019-05-12T12:07:16.242Z,3.87
2019-05-12T12:09:49.614Z,3.85
2019-05-12T12:12:17.022Z,5.33
2019-05-12T12:14:50.331Z,5.47
2019-05-12T12:17:25.052Z,4.97
2019-05-12T12:19:48.995Z,4.03
2019-05-12T12:22:20.539Z,3.37
2019-05-12T12:24:50.145Z,3.42
2019-05-12T12:27:19.664Z,4.45
2019-05-12T12:29:49.193Z,3.52
2019-05-12T12:32:20.412Z,3.95
2019-05-12T12:34:50.116Z,5.08
2019-05-12T12:37:24.009Z,2.50
2019-05-12T12:40:14.244Z,5.95
2019-05-12T12:42:47.060Z,4.58
2019-05-12T12:45:16.181Z,4.33
2019-05-12T12:47:49.234Z,5.65
2019-05-12T12:50:20.360Z,5.12
2019-05-12T12:52:48.883Z,4.83
2019-05-12T12:55:18.525Z,4.55
2019-05-12T12:57:50.721Z,4.47
2019-05-12T13:00:29.740Z,6.87
2019-05-12T13:02:51.945Z,5.17
2019-05-12T13:05:23.844Z,4.72
2019-05-12T13:07:53.480Z,4.33
2019-05-12T13:10:24.820Z,5.28
2019-05-12T13:12:56.625Z,2.35
2019-05-12T13:15:25.934Z,6.03
2019-05-12T13:17:55.556Z,5.03
2019-05-12T13:20:25.115Z,4.90
2019-05-12T13:22:54.751Z,3.95
2019-05-12T13:25:24.337Z,4.62
2019-05-12T13:27:53.990Z,5.83
2019-05-12T13:30:24.363Z,6.30
2019-05-12T13:32:53.987Z,4.17
2019-05-12T13:35:23.890Z,4.47
2019-05-12T13:37:56.349Z,5.05
2019-05-12T13:40:24.786Z,3.87
2019-05-12T13:42:54.656Z,3.77
2019-05-12T13:45:24.372Z,4.75
2019-05-12T13:47:54.161Z,6.15
2019-05-12T13:50:26.279Z,6.53
2019-05-12T13:52:55.488Z,4.62
2019-05-12T13:55:25.066Z,5.62
2019-05-12T13:57:57.692Z,6.58
2019-05-12T14:00:25.838Z,5.35
2019-05-12T14:03:03.576Z,3.52
2019-05-12T14:05:26.626Z,5.25
2019-05-12T14:07:57.425Z,3.45
2019-05-12T14:10:27.065Z,6.15
2019-05-12T14:12:56.643Z,4.45
2019-05-12T14:15:26.511Z,6.85
2019-05-12T14:17:56.385Z,6.22
2019-05-12T14:28:05.377Z,5.08
2019-05-12T14:30:33.731Z,6.90
2019-05-12T14:33:03.526Z,5.92
2019-05-12T14:35:40.812Z,5.08
2019-05-12T14:38:04.545Z,6.87
2019-05-12T14:40:34.886Z,5.28
2019-05-12T14:43:04.689Z,9.43
2019-05-12T14:45:34.409Z,4.85
2019-05-12T14:48:05.890Z,4.80
2019-05-12T14:50:35.657Z,4.30
2019-05-12T14:53:05.312Z,4.75
2019-05-12T14:55:34.888Z,6.50
2019-05-12T14:58:09.190Z,6.80
2019-05-12T15:00:36.015Z,4.60
2019-05-12T15:03:12.693Z,8.85
2019-05-12T15:05:41.375Z,6.05
2019-05-12T15:08:07.946Z,4.05
2019-05-12T15:10:37.721Z,7.00
2019-05-12T15:13:07.282Z,4.78
2019-05-12T15:15:55.386Z,5.80
2019-05-12T15:18:21.506Z,7.12
2019-05-12T15:20:51.706Z,6.55
2019-05-12T15:23:23.832Z,5.03
2019-05-12T15:25:53.803Z,4.90
2019-05-12T15:28:24.140Z,6.33
2019-05-12T15:30:54.127Z,3.67
2019-05-12T15:33:24.450Z,7.50
2019-05-12T15:35:54.794Z,7.85
2019-05-12T15:38:24.657Z,4.25
2019-05-12T15:40:54.309Z,7.28
2019-05-12T15:43:24.369Z,4.92
2019-05-12T15:45:57.941Z,5.05
2019-05-12T15:48:26.220Z,4.83
2019-05-12T15:50:59.559Z,4.60
2019-05-12T15:53:27.325Z,6.47
2019-05-12T15:55:57.098Z,4.70
2019-05-12T15:58:26.609Z,8.90
2019-05-12T16:00:58.083Z,7.12
2019-05-12T16:03:27.606Z,5.87
2019-05-12T16:06:01.496Z,4.75
2019-05-12T16:08:28.422Z,5.03
2019-05-12T16:10:58.009Z,6.55
2019-05-12T16:13:27.517Z,4.10
2019-05-12T16:16:03.158Z,4.47
2019-05-12T16:22:16.090Z,5.90
2019-05-12T16:24:48.818Z,6.22
2019-05-12T16:27:17.125Z,7.00
2019-05-12T16:29:49.916Z,8.03
2019-05-12T16:32:26.813Z,7.08
2019-05-12T16:34:49.166Z,6.50
2019-05-12T16:37:25.508Z,7.30
2019-05-12T16:39:49.962Z,6.47
2019-05-12T16:42:19.554Z,5.50
2019-05-12T16:44:49.725Z,5.47
2019-05-12T16:47:25.110Z,7.85
2019-05-12T16:49:50.531Z,7.50
2019-05-12T16:52:20.095Z,9.20
2019-05-12T16:54:50.130Z,5.25
2019-05-12T16:57:19.708Z,4.28
2019-05-12T16:59:53.391Z,9.48
2019-05-12T17:02:20.554Z,4.58
2019-05-12T17:04:50.390Z,5.80
2019-05-12T17:07:20.942Z,5.85
2019-05-12T17:09:50.754Z,8.68
2019-05-12T17:12:25.514Z,5.50
2019-05-12T17:14:53.285Z,5.72
2019-05-12T17:17:24.676Z,7.05
2019-05-12T17:19:54.115Z,7.65
2019-05-12T17:22:24.027Z,6.20
2019-05-12T17:24:53.879Z,5.55
2019-05-12T17:27:26.671Z,6.62
2019-05-12T17:29:55.014Z,5.55
2019-05-12T17:32:24.584Z,6.35
2019-05-12T17:34:54.162Z,5.53
2019-05-12T17:37:23.927Z,6.97
2019-05-12T17:39:53.946Z,6.45
2019-05-12T17:42:26.665Z,6.03
2019-05-12T17:44:54.931Z,7.62
2019-05-12T17:47:26.364Z,7.80
2019-05-12T17:50:00.587Z,6.25
2019-05-12T17:52:26.889Z,3.72
2019-05-12T17:55:04.380Z,6.00
2019-05-12T17:57:27.830Z,6.97
2019-05-12T17:59:59.826Z,8.15
2019-05-12T18:02:28.732Z,6.62
2019-05-12T18:05:01.023Z,6.55
2019-05-12T18:07:29.604Z,5.22
2019-05-12T18:10:00.557Z,5.92
2019-05-12T18:12:36.376Z,5.35
2019-05-12T18:15:03.998Z,8.50
2019-05-12T18:17:33.855Z,3.92
2019-05-12T18:20:04.630Z,6.03
2019-05-12T18:22:34.189Z,6.58
2019-05-12T18:25:04.506Z,6.62
2019-05-12T18:27:43.240Z,7.85
2019-05-12T18:30:07.395Z,10.50
2019-05-12T18:32:37.178Z,8.20
2019-05-12T18:35:07.238Z,4.47
2019-05-12T18:37:36.930Z,4.10
2019-05-12T18:40:07.966Z,7.62
2019-05-12T18:42:37.551Z,6.03
2019-05-12T18:45:12.156Z,3.75
2019-05-12T18:47:39.729Z,4.07
2019-05-12T18:50:09.975Z,9.73
2019-05-12T18:52:42.967Z,9.85
2019-05-12T18:55:11.147Z,8.00
2019-05-12T18:57:46.211Z,8.38
2019-05-12T19:00:20.029Z,7.20
2019-05-12T19:02:51.166Z,7.83
2019-05-12T19:05:23.795Z,6.60
2019-05-12T19:07:54.258Z,6.67
2019-05-12T19:10:24.302Z,11.00
2019-05-12T19:13:01.192Z,5.95
2019-05-12T19:15:25.665Z,7.22
2019-05-12T19:17:55.244Z,7.72
2019-05-12T19:20:24.840Z,10.05
2019-05-12T19:22:59.771Z,7.17
2019-05-12T19:25:30.188Z,10.50
2019-05-12T19:28:05.856Z,8.20
2019-05-12T19:30:28.714Z,11.30
2019-05-12T19:33:00.063Z,12.20
2019-05-12T19:35:29.510Z,13.00
2019-05-12T19:38:01.833Z,10.03
2019-05-12T19:40:30.309Z,7.47
2019-05-12T19:43:03.358Z,5.45
2019-05-12T19:45:33.435Z,6.40
2019-05-12T19:48:04.076Z,7.92
2019-05-12T19:50:33.731Z,3.98
2019-05-12T19:53:04.210Z,3.27
2019-05-12T19:55:33.992Z,5.80
2019-05-12T19:58:11.169Z,4.80
2019-05-12T20:00:34.838Z,5.95
2019-05-12T20:03:08.026Z,3.47
2019-05-12T20:05:35.681Z,6.03
2019-05-12T20:08:05.266Z,9.90
2019-05-12T20:10:36.214Z,7.92
2019-05-12T20:13:06.136Z,5.92
2019-05-12T20:15:40.912Z,6.15
2019-05-12T20:18:06.907Z,3.72
2019-05-12T20:20:41.431Z,6.62
2019-05-12T20:23:07.715Z,5.55
2019-05-12T20:25:37.516Z,6.12
2019-05-12T20:28:11.229Z,5.22
2019-05-12T20:30:38.317Z,6.20
2019-05-12T20:33:08.212Z,8.93
2019-05-12T20:35:39.336Z,6.53
2019-05-12T20:38:09.175Z,6.28
2019-05-12T20:40:39.915Z,5.95
2019-05-12T20:43:12.115Z,5.50
2019-05-12T20:45:42.162Z,11.50
2019-05-12T20:48:14.267Z,6.90
2019-05-12T20:50:43.563Z,5.33
2019-05-12T20:53:14.318Z,5.78
2019-05-12T20:55:44.362Z,4.97
2019-05-12T20:58:13.965Z,5.85
2019-05-12T21:00:45.616Z,6.92
2019-05-12T21:03:14.785Z,4.80
2019-05-12T21:05:44.412Z,4.75
2019-05-12T21:08:15.380Z,11.75
2019-05-12T21:10:45.231Z,4.92
2019-05-12T21:13:20.192Z,4.12
2019-05-12T21:15:46.618Z,4.45
2019-05-12T21:18:16.408Z,6.70
2019-05-12T21:20:52.275Z,5.40
2019-05-12T21:23:17.290Z,4.83
2019-05-12T21:25:52.176Z,6.35
2019-05-12T21:28:18.545Z,7.45
2019-05-12T21:30:49.819Z,4.33
2019-05-12T21:33:19.701Z,5.42
2019-05-12T21:35:50.189Z,5.00
2019-05-12T21:38:27.431Z,12.05
2019-05-12T21:40:50.932Z,3.60
2019-05-12T21:43:20.551Z,4.42
2019-05-12T21:45:50.104Z,3.20
2019-05-12T21:48:23.809Z,7.60
2019-05-12T21:50:53.159Z,7.00
2019-05-12T21:53:23.823Z,5.12
2019-05-12T21:55:57.721Z,6.40
2019-05-12T21:58:24.559Z,5.25
2019-05-12T22:01:04.200Z,2.42
2019-05-12T22:03:28.553Z,5.37
2019-05-12T22:06:03.485Z,4.15
2019-05-12T22:08:30.983Z,6.40
2019-05-12T22:11:05.926Z,3.33
2019-05-12T22:13:31.762Z,5.30
2019-05-12T22:16:03.693Z,4.25
2019-05-12T22:18:33.390Z,3.47
2019-05-12T22:21:06.080Z,5.53
2019-05-12T22:23:34.286Z,5.22
2019-05-12T22:26:04.305Z,4.97
2019-05-12T22:28:34.390Z,6.70
2019-05-12T22:31:04.229Z,5.30
2019-05-12T22:33:33.820Z,4.92
2019-05-12T22:36:13.984Z,7.75
2019-05-12T22:38:34.645Z,5.10
2019-05-12T22:41:04.468Z,5.25
2019-05-12T22:43:40.951Z,10.70
2019-05-12T22:46:05.487Z,4.37
2019-05-12T22:48:37.275Z,3.87
2019-05-12T22:51:15.294Z,4.70
2019-05-12T22:53:37.535Z,4.03
2019-05-12T22:56:12.118Z,3.25
2019-05-12T22:58:38.396Z,4.67
2019-05-12T23:01:07.954Z,7.67
2019-05-12T23:03:43.153Z,3.77
2019-05-12T23:06:21.103Z,8.53
2019-05-12T23:08:47.329Z,6.03
2019-05-12T23:11:14.343Z,4.53
2019-05-12T23:13:42.938Z,4.83
2019-05-12T23:16:14.184Z,3.27
2019-05-12T23:18:44.452Z,3.45
2019-05-12T23:21:17.399Z,4.67
2019-05-12T23:23:49.876Z,7.05
2019-05-12T23:26:16.453Z,4.20
2019-05-12T23:28:50.061Z,7.22
2019-05-12T23:31:19.582Z,5.25
2019-05-12T23:33:48.406Z,3.62
2019-05-12T23:36:19.676Z,5.35
2019-05-12T23:38:54.181Z,4.28
2019-05-12T23:41:20.747Z,6.55
2019-05-12T23:43:50.403Z,6.17
2019-05-12T23:46:19.974Z,7.03
2019-05-12T23:48:50.559Z,6.10
2019-05-12T23:51:20.485Z,8.23
2019-05-12T23:53:50.126Z,3.60
2019-05-12T23:56:19.756Z,6.30
2019-05-12T23:58:49.306Z,4.60
